sensor_id;sensor_type;location;lat;lon;timestamp;pressure;altitude;pressure_sealevel;temperature;humidity
2841;BME280;53423;49.224;12.074;2022-09-23T00:01:35;98212.41;;;7.23;69.54
2841;BME280;53423;49.224;12.074;2022-09-23T00:04:03;98213.75;;;7.18;69.80
2841;BME280;53423;49.224;12.074;2022-09-23T00:06:33;98207.53;;;7.09;70.41
2841;BME280;53423;49.224;12.074;2022-09-23T00:09:01;98206.97;;;7.06;70.42
2841;BME280;53423;49.224;12.074;2022-09-23T00:11:29;98209.78;;;7.14;70.40
2841;BME280;53423;49.224;12.074;2022-09-23T00:13:58;98211.13;;;7.08;70.13
2841;BME280;53423;49.224;12.074;2022-09-23T00:16:29;98218.66;;;7.11;69.96
2841;BME280;53423;49.224;12.074;2022-09-23T00:18:58;98213.72;;;7.08;70.80
2841;BME280;53423;49.224;12.074;2022-09-23T00:21:28;98219.50;;;7.12;70.38
2841;BME280;53423;49.224;12.074;2022-09-23T00:23:57;98210.41;;;7.06;71.03
2841;BME280;53423;49.224;12.074;2022-09-23T00:26:25;98210.53;;;7.05;70.75
2841;BME280;53423;49.224;12.074;2022-09-23T00:28:53;98207.66;;;7.08;70.12
2841;BME280;53423;49.224;12.074;2022-09-23T00:31:23;98206.97;;;7.06;70.72
2841;BME280;53423;49.224;12.074;2022-09-23T00:33:53;98206.22;;;6.94;71.29
2841;BME280;53423;49.224;12.074;2022-09-23T00:36:22;98202.91;;;6.92;71.12
2841;BME280;53423;49.224;12.074;2022-09-23T00:38:51;98201.41;;;6.90;69.95
2841;BME280;53423;49.224;12.074;2022-09-23T00:41:21;98195.31;;;6.80;70.85
2841;BME280;53423;49.224;12.074;2022-09-23T00:43:50;98203.53;;;6.75;70.48
2841;BME280;53423;49.224;12.074;2022-09-23T00:46:21;98198.50;;;6.83;70.07
2841;BME280;53423;49.224;12.074;2022-09-23T00:48:56;98200.66;;;6.78;70.55
2841;BME280;53423;49.224;12.074;2022-09-23T00:51:28;98194.19;;;6.73;70.49
2841;BME280;53423;49.224;12.074;2022-09-23T00:54:00;98194.19;;;6.73;70.68
2841;BME280;53423;49.224;12.074;2022-09-23T00:56:31;98196.06;;;6.71;71.09
2841;BME280;53423;49.224;12.074;2022-09-23T00:59:00;98199.13;;;6.76;71.23
2841;BME280;53423;49.224;12.074;2022-09-23T01:01:28;98198.31;;;6.75;70.41
2841;BME280;53423;49.224;12.074;2022-09-23T01:03:57;98196.66;;;6.74;70.27
2841;BME280;53423;49.224;12.074;2022-09-23T01:06:25;98193.72;;;6.68;70.58
2841;BME280;53423;49.224;12.074;2022-09-23T01:08:55;98190.72;;;6.72;69.68
2841;BME280;53423;49.224;12.074;2022-09-23T01:11:32;98192.13;;;6.76;70.62
2841;BME280;53423;49.224;12.074;2022-09-23T01:14:14;98197.44;;;6.65;70.69
2841;BME280;53423;49.224;12.074;2022-09-23T01:16:53;98185.78;;;6.69;70.36
2841;BME280;53423;49.224;12.074;2022-09-23T01:19:45;98180.31;;;6.72;72.13
2841;BME280;53423;49.224;12.074;2022-09-23T01:22:30;98184.72;;;6.72;71.63
2841;BME280;53423;49.224;12.074;2022-09-23T01:25:20;98174.22;;;6.83;71.76
2841;BME280;53423;49.224;12.074;2022-09-23T01:28:17;98178.22;;;6.87;71.49
2841;BME280;53423;49.224;12.074;2022-09-23T01:30:53;98180.13;;;6.64;72.81
2841;BME280;53423;49.224;12.074;2022-09-23T01:33:28;98179.25;;;6.75;72.80
2841;BME280;53423;49.224;12.074;2022-09-23T01:36:10;98174.53;;;6.89;72.21
2841;BME280;53423;49.224;12.074;2022-09-23T01:38:50;98178.44;;;7.04;71.84
2841;BME280;53423;49.224;12.074;2022-09-23T01:41:28;98174.53;;;6.89;72.88
2841;BME280;53423;49.224;12.074;2022-09-23T01:44:05;98170.31;;;6.98;73.38
2841;BME280;53423;49.224;12.074;2022-09-23T01:46:40;98171.31;;;7.06;72.89
2841;BME280;53423;49.224;12.074;2022-09-23T01:49:13;98165.28;;;7.06;73.66
2841;BME280;53423;49.224;12.074;2022-09-23T01:51:46;98153.84;;;6.97;74.19
2841;BME280;53423;49.224;12.074;2022-09-23T01:54:19;98165.22;;;6.96;74.86
2841;BME280;53423;49.224;12.074;2022-09-23T01:56:53;98158.63;;;6.92;75.27
2841;BME280;53423;49.224;12.074;2022-09-23T01:59:29;98168.50;;;6.89;74.72
2841;BME280;53423;49.224;12.074;2022-09-23T02:02:04;98161.03;;;7.05;75.04
2841;BME280;53423;49.224;12.074;2022-09-23T02:04:35;98159.84;;;7.18;73.96
2841;BME280;53423;49.224;12.074;2022-09-23T02:07:08;98152.53;;;7.12;74.22
2841;BME280;53423;49.224;12.074;2022-09-23T02:09:41;98156.13;;;7.11;74.06
2841;BME280;53423;49.224;12.074;2022-09-23T02:12:14;98161.44;;;7.00;74.65
2841;BME280;53423;49.224;12.074;2022-09-23T02:14:48;98157.84;;;7.01;74.92
2841;BME280;53423;49.224;12.074;2022-09-23T02:17:23;98149.25;;;6.80;75.21
2841;BME280;53423;49.224;12.074;2022-09-23T02:19:55;98148.69;;;6.77;77.10
2841;BME280;53423;49.224;12.074;2022-09-23T02:22:28;98147.69;;;6.98;75.12
2841;BME280;53423;49.224;12.074;2022-09-23T02:24:56;98155.38;;;7.00;75.36
2841;BME280;53423;49.224;12.074;2022-09-23T02:27:29;98158.41;;;7.05;75.60
2841;BME280;53423;49.224;12.074;2022-09-23T02:30:03;98151.75;;;7.21;73.63
2841;BME280;53423;49.224;12.074;2022-09-23T02:32:45;98153.63;;;7.10;75.20
2841;BME280;53423;49.224;12.074;2022-09-23T02:35:19;98143.91;;;7.12;74.66
2841;BME280;53423;49.224;12.074;2022-09-23T02:37:56;98147.72;;;7.08;74.15
2841;BME280;53423;49.224;12.074;2022-09-23T02:40:32;98147.31;;;7.12;73.71
2841;BME280;53423;49.224;12.074;2022-09-23T02:43:07;98139.78;;;7.09;73.77
2841;BME280;53423;49.224;12.074;2022-09-23T02:45:36;98153.06;;;7.06;74.61
2841;BME280;53423;49.224;12.074;2022-09-23T02:48:09;98143.97;;;6.91;74.60
2841;BME280;53423;49.224;12.074;2022-09-23T02:50:40;98144.69;;;7.03;74.91
2841;BME280;53423;49.224;12.074;2022-09-23T02:53:08;98140.03;;;7.06;74.66
2841;BME280;53423;49.224;12.074;2022-09-23T02:55:36;98136.84;;;6.93;74.77
2841;BME280;53423;49.224;12.074;2022-09-23T02:58:04;98134.66;;;6.98;74.80
2841;BME280;53423;49.224;12.074;2022-09-23T03:00:41;98138.09;;;6.99;74.35
2841;BME280;53423;49.224;12.074;2022-09-23T03:03:25;98134.56;;;7.09;74.60
2841;BME280;53423;49.224;12.074;2022-09-23T03:05:57;98129.34;;;7.09;74.41
2841;BME280;53423;49.224;12.074;2022-09-23T03:08:39;98130.94;;;6.91;75.49
2841;BME280;53423;49.224;12.074;2022-09-23T03:11:10;98132.56;;;6.92;75.62
2841;BME280;53423;49.224;12.074;2022-09-23T03:14:01;98133.44;;;7.02;74.43
2841;BME280;53423;49.224;12.074;2022-09-23T03:16:38;98124.69;;;7.03;75.02
2841;BME280;53423;49.224;12.074;2022-09-23T03:19:19;98126.47;;;7.12;73.70
2841;BME280;53423;49.224;12.074;2022-09-23T03:21:55;98127.84;;;7.07;74.66
2841;BME280;53423;49.224;12.074;2022-09-23T03:24:27;98122.38;;;7.10;75.34
2841;BME280;53423;49.224;12.074;2022-09-23T03:27:00;98124.84;;;7.21;74.27
2841;BME280;53423;49.224;12.074;2022-09-23T03:29:30;98127.88;;;7.16;74.45
2841;BME280;53423;49.224;12.074;2022-09-23T03:32:02;98127.47;;;7.21;73.86
2841;BME280;53423;49.224;12.074;2022-09-23T03:34:36;98122.25;;;7.21;74.61
2841;BME280;53423;49.224;12.074;2022-09-23T03:37:09;98131.31;;;7.17;74.89
2841;BME280;53423;49.224;12.074;2022-09-23T03:39:42;98124.50;;;6.95;75.31
2841;BME280;53423;49.224;12.074;2022-09-23T03:42:14;98120.09;;;6.96;75.13
2841;BME280;53423;49.224;12.074;2022-09-23T03:44:45;98118.94;;;6.79;74.76
2841;BME280;53423;49.224;12.074;2022-09-23T03:47:14;98116.91;;;6.83;74.44
2841;BME280;53423;49.224;12.074;2022-09-23T03:49:45;98116.94;;;6.92;74.67
2841;BME280;53423;49.224;12.074;2022-09-23T03:52:14;98113.13;;;6.96;74.47
2841;BME280;53423;49.224;12.074;2022-09-23T03:54:42;98105.16;;;6.98;73.20
2841;BME280;53423;49.224;12.074;2022-09-23T03:57:11;98114.09;;;6.95;75.03
2841;BME280;53423;49.224;12.074;2022-09-23T03:59:39;98112.59;;;7.02;74.06
2841;BME280;53423;49.224;12.074;2022-09-23T04:02:08;98113.69;;;7.00;73.70
2841;BME280;53423;49.224;12.074;2022-09-23T04:04:37;98108.88;;;6.95;74.32
2841;BME280;53423;49.224;12.074;2022-09-23T04:07:09;98110.09;;;6.91;74.17
2841;BME280;53423;49.224;12.074;2022-09-23T04:09:37;98107.06;;;6.96;74.13
2841;BME280;53423;49.224;12.074;2022-09-23T04:12:05;98108.31;;;6.92;74.66
2841;BME280;53423;49.224;12.074;2022-09-23T04:14:33;98100.50;;;6.92;74.84
2841;BME280;53423;49.224;12.074;2022-09-23T04:17:01;98102.41;;;6.90;74.03
2841;BME280;53423;49.224;12.074;2022-09-23T04:19:29;98102.59;;;6.77;75.51
2841;BME280;53423;49.224;12.074;2022-09-23T04:21:57;98101.75;;;6.67;75.81
2841;BME280;53423;49.224;12.074;2022-09-23T04:24:27;98105.41;;;6.85;74.37
2841;BME280;53423;49.224;12.074;2022-09-23T04:26:55;98104.88;;;6.91;75.01
2841;BME280;53423;49.224;12.074;2022-09-23T04:29:24;98104.34;;;6.97;74.71
2841;BME280;53423;49.224;12.074;2022-09-23T04:31:52;98092.69;;;7.01;73.61
2841;BME280;53423;49.224;12.074;2022-09-23T04:34:21;98093.41;;;7.03;74.06
2841;BME280;53423;49.224;12.074;2022-09-23T04:36:49;98091.53;;;6.85;73.64
2841;BME280;53423;49.224;12.074;2022-09-23T04:39:17;98086.91;;;6.58;75.40
2841;BME280;53423;49.224;12.074;2022-09-23T04:41:46;98092.69;;;6.62;74.56
2841;BME280;53423;49.224;12.074;2022-09-23T04:44:14;98091.81;;;6.52;75.39
2841;BME280;53423;49.224;12.074;2022-09-23T04:46:42;98097.66;;;6.44;75.67
2841;BME280;53423;49.224;12.074;2022-09-23T04:49:14;98092.81;;;6.60;75.20
2841;BME280;53423;49.224;12.074;2022-09-23T04:51:42;98078.44;;;6.66;74.67
2841;BME280;53423;49.224;12.074;2022-09-23T04:54:11;98088.97;;;6.64;74.63
2841;BME280;53423;49.224;12.074;2022-09-23T04:56:40;98090.44;;;6.57;74.83
2841;BME280;53423;49.224;12.074;2022-09-23T04:59:10;98092.84;;;6.70;74.94
2841;BME280;53423;49.224;12.074;2022-09-23T05:01:38;98090.72;;;6.84;73.35
2841;BME280;53423;49.224;12.074;2022-09-23T05:04:08;98095.06;;;6.74;73.63
2841;BME280;53423;49.224;12.074;2022-09-23T05:06:39;98095.34;;;6.81;74.24
2841;BME280;53423;49.224;12.074;2022-09-23T05:09:14;98101.53;;;6.80;72.82
2841;BME280;53423;49.224;12.074;2022-09-23T05:11:43;98096.50;;;6.88;73.96
2841;BME280;53423;49.224;12.074;2022-09-23T05:14:13;98102.69;;;6.96;73.42
2841;BME280;53423;49.224;12.074;2022-09-23T05:16:41;98107.47;;;6.91;72.61
2841;BME280;53423;49.224;12.074;2022-09-23T05:19:09;98103.25;;;7.00;72.23
2841;BME280;53423;49.224;12.074;2022-09-23T05:21:39;98094.84;;;6.87;71.49
2841;BME280;53423;49.224;12.074;2022-09-23T05:24:07;98095.75;;;6.76;72.49
2841;BME280;53423;49.224;12.074;2022-09-23T05:26:35;98104.84;;;6.82;72.45
2841;BME280;53423;49.224;12.074;2022-09-23T05:29:03;98104.13;;;6.80;71.23
2841;BME280;53423;49.224;12.074;2022-09-23T05:31:33;98099.66;;;6.91;71.98
2841;BME280;53423;49.224;12.074;2022-09-23T05:34:03;98103.38;;;6.89;72.35
2841;BME280;53423;49.224;12.074;2022-09-23T05:36:33;98105.13;;;6.88;71.16
2841;BME280;53423;49.224;12.074;2022-09-23T05:39:05;98106.47;;;6.83;71.92
2841;BME280;53423;49.224;12.074;2022-09-23T05:41:33;98115.25;;;6.82;71.73
2841;BME280;53423;49.224;12.074;2022-09-23T05:44:01;98101.00;;;6.86;71.51
2841;BME280;53423;49.224;12.074;2022-09-23T05:46:47;98106.06;;;6.87;72.62
2841;BME280;53423;49.224;12.074;2022-09-23T05:49:15;98105.72;;;6.92;72.32
2841;BME280;53423;49.224;12.074;2022-09-23T05:51:42;98098.06;;;7.09;71.67
2841;BME280;53423;49.224;12.074;2022-09-23T05:54:10;98107.34;;;6.93;72.58
2841;BME280;53423;49.224;12.074;2022-09-23T05:56:38;98105.72;;;7.01;72.78
2841;BME280;53423;49.224;12.074;2022-09-23T05:59:06;98110.09;;;6.91;72.46
2841;BME280;53423;49.224;12.074;2022-09-23T06:01:34;98107.25;;;7.04;71.09
2841;BME280;53423;49.224;12.074;2022-09-23T06:04:06;98101.44;;;6.91;71.94
2841;BME280;53423;49.224;12.074;2022-09-23T06:06:35;98104.09;;;7.00;71.39
2841;BME280;53423;49.224;12.074;2022-09-23T06:09:04;98103.97;;;7.11;70.87
2841;BME280;53423;49.224;12.074;2022-09-23T06:11:34;98098.06;;;7.09;71.70
2841;BME280;53423;49.224;12.074;2022-09-23T06:14:03;98097.28;;;7.09;71.73
2841;BME280;53423;49.224;12.074;2022-09-23T06:16:33;98099.88;;;7.09;72.08
2841;BME280;53423;49.224;12.074;2022-09-23T06:19:01;98096.91;;;6.83;73.04
2841;BME280;53423;49.224;12.074;2022-09-23T06:21:35;98097.69;;;6.84;72.58
2841;BME280;53423;49.224;12.074;2022-09-23T06:24:04;98096.84;;;7.04;73.17
2841;BME280;53423;49.224;12.074;2022-09-23T06:26:33;98099.34;;;7.15;72.54
2841;BME280;53423;49.224;12.074;2022-09-23T06:29:07;98097.88;;;7.31;71.24
2841;BME280;53423;49.224;12.074;2022-09-23T06:31:37;98094.59;;;7.48;71.59
2841;BME280;53423;49.224;12.074;2022-09-23T06:34:08;98095.16;;;7.52;71.47
2841;BME280;53423;49.224;12.074;2022-09-23T06:36:41;98099.63;;;7.31;70.39
2841;BME280;53423;49.224;12.074;2022-09-23T06:39:12;98096.69;;;7.64;70.76
2841;BME280;53423;49.224;12.074;2022-09-23T06:41:41;98094.38;;;7.71;71.06
2841;BME280;53423;49.224;12.074;2022-09-23T06:44:09;98095.72;;;7.75;69.67
2841;BME280;53423;49.224;12.074;2022-09-23T06:46:37;98099.44;;;8.10;69.55
2841;BME280;53423;49.224;12.074;2022-09-23T06:49:05;98101.66;;;8.24;68.71
2841;BME280;53423;49.224;12.074;2022-09-23T06:51:33;98090.91;;;8.37;68.29
2841;BME280;53423;49.224;12.074;2022-09-23T06:54:03;98104.22;;;8.53;67.50
2841;BME280;53423;49.224;12.074;2022-09-23T06:56:31;98112.66;;;8.28;68.19
2841;BME280;53423;49.224;12.074;2022-09-23T06:59:05;98109.75;;;8.31;67.79
2841;BME280;53423;49.224;12.074;2022-09-23T07:01:33;98118.53;;;7.92;69.12
2841;BME280;53423;49.224;12.074;2022-09-23T07:04:01;98116.47;;;7.95;70.22
2841;BME280;53423;49.224;12.074;2022-09-23T07:06:29;98122.94;;;8.10;69.48
2841;BME280;53423;49.224;12.074;2022-09-23T07:08:57;98122.53;;;8.05;70.12
2841;BME280;53423;49.224;12.074;2022-09-23T07:11:27;98124.84;;;8.37;69.24
2841;BME280;53423;49.224;12.074;2022-09-23T07:13:55;98118.56;;;8.30;69.80
2841;BME280;53423;49.224;12.074;2022-09-23T07:16:24;98122.09;;;8.38;70.03
2841;BME280;53423;49.224;12.074;2022-09-23T07:18:52;98129.09;;;8.19;69.55
2841;BME280;53423;49.224;12.074;2022-09-23T07:21:20;98130.78;;;8.20;69.89
2841;BME280;53423;49.224;12.074;2022-09-23T07:23:48;98131.97;;;8.54;69.42
2841;BME280;53423;49.224;12.074;2022-09-23T07:26:18;98123.72;;;8.68;68.98
2841;BME280;53423;49.224;12.074;2022-09-23T07:28:52;98125.78;;;9.01;68.19
2841;BME280;53423;49.224;12.074;2022-09-23T07:31:21;98126.81;;;9.18;67.56
2841;BME280;53423;49.224;12.074;2022-09-23T07:34:05;98123.56;;;9.60;66.55
2841;BME280;53423;49.224;12.074;2022-09-23T07:36:33;98119.84;;;9.98;65.32
2841;BME280;53423;49.224;12.074;2022-09-23T07:39:03;98114.91;;;9.95;66.25
2841;BME280;53423;49.224;12.074;2022-09-23T07:41:32;98116.59;;;10.14;64.99
2841;BME280;53423;49.224;12.074;2022-09-23T07:44:02;98113.75;;;11.43;60.68
2841;BME280;53423;49.224;12.074;2022-09-23T07:46:33;98115.69;;;11.83;59.05
2841;BME280;53423;49.224;12.074;2022-09-23T07:49:02;98115.41;;;12.42;59.00
2841;BME280;53423;49.224;12.074;2022-09-23T07:51:32;98112.56;;;12.84;56.24
2841;BME280;53423;49.224;12.074;2022-09-23T07:54:03;98115.28;;;12.52;58.69
2841;BME280;53423;49.224;12.074;2022-09-23T07:56:33;98104.25;;;13.65;54.17
2841;BME280;53423;49.224;12.074;2022-09-23T07:59:04;98106.84;;;14.19;54.51
2841;BME280;53423;49.224;12.074;2022-09-23T08:01:36;98110.59;;;14.47;51.20
2841;BME280;53423;49.224;12.074;2022-09-23T08:04:06;98101.34;;;14.65;50.23
2841;BME280;53423;49.224;12.074;2022-09-23T08:06:34;98104.47;;;14.69;50.66
2841;BME280;53423;49.224;12.074;2022-09-23T08:09:06;98099.31;;;15.05;51.48
2841;BME280;53423;49.224;12.074;2022-09-23T08:11:35;98092.31;;;15.12;50.70
2841;BME280;53423;49.224;12.074;2022-09-23T08:14:09;98097.28;;;15.36;51.67
2841;BME280;53423;49.224;12.074;2022-09-23T08:16:39;98104.03;;;15.38;49.03
2841;BME280;53423;49.224;12.074;2022-09-23T08:19:07;98096.03;;;15.32;49.39
2841;BME280;53423;49.224;12.074;2022-09-23T08:21:35;98100.47;;;15.60;47.83
2841;BME280;53423;49.224;12.074;2022-09-23T08:24:05;98101.84;;;15.56;48.46
2841;BME280;53423;49.224;12.074;2022-09-23T08:26:33;98095.50;;;16.29;48.53
2841;BME280;53423;49.224;12.074;2022-09-23T08:29:02;98087.59;;;16.35;47.53
2841;BME280;53423;49.224;12.074;2022-09-23T08:31:31;98093.81;;;16.21;47.07
2841;BME280;53423;49.224;12.074;2022-09-23T08:34:00;98087.47;;;16.64;47.17
2841;BME280;53423;49.224;12.074;2022-09-23T08:36:28;98078.75;;;16.98;46.56
2841;BME280;53423;49.224;12.074;2022-09-23T08:38:56;98074.19;;;15.73;47.51
2841;BME280;53423;49.224;12.074;2022-09-23T08:41:28;98068.56;;;16.67;49.15
2841;BME280;53423;49.224;12.074;2022-09-23T08:44:01;98070.34;;;17.28;46.22
2841;BME280;53423;49.224;12.074;2022-09-23T08:46:36;98069.84;;;17.12;47.35
2841;BME280;53423;49.224;12.074;2022-09-23T08:49:06;98066.00;;;16.32;48.62
2841;BME280;53423;49.224;12.074;2022-09-23T08:51:41;98062.59;;;17.74;44.85
2841;BME280;53423;49.224;12.074;2022-09-23T08:54:12;98056.97;;;18.29;43.63
2841;BME280;53423;49.224;12.074;2022-09-23T08:56:45;98054.91;;;18.97;41.41
2841;BME280;53423;49.224;12.074;2022-09-23T08:59:19;98057.47;;;19.23;40.34
2841;BME280;53423;49.224;12.074;2022-09-23T09:01:52;98052.50;;;19.90;39.38
2841;BME280;53423;49.224;12.074;2022-09-23T09:04:26;98054.75;;;19.55;39.70
2841;BME280;53423;49.224;12.074;2022-09-23T09:07:01;98048.16;;;19.96;38.16
2841;BME280;53423;49.224;12.074;2022-09-23T09:10:00;98054.00;;;20.11;37.96
2841;BME280;53423;49.224;12.074;2022-09-23T09:12:36;98053.78;;;19.24;39.72
2841;BME280;53423;49.224;12.074;2022-09-23T09:15:11;98049.38;;;19.62;40.97
2841;BME280;53423;49.224;12.074;2022-09-23T09:17:49;98035.50;;;20.71;37.74
2841;BME280;53423;49.224;12.074;2022-09-23T09:20:23;98033.19;;;21.00;37.73
2841;BME280;53423;49.224;12.074;2022-09-23T09:22:53;98039.03;;;21.44;36.54
2841;BME280;53423;49.224;12.074;2022-09-23T09:25:31;98027.53;;;20.71;37.19
2841;BME280;53423;49.224;12.074;2022-09-23T09:28:02;98031.28;;;20.82;37.89
2841;BME280;53423;49.224;12.074;2022-09-23T09:30:32;98028.50;;;21.49;36.35
2841;BME280;53423;49.224;12.074;2022-09-23T09:33:05;98020.44;;;21.38;37.12
2841;BME280;53423;49.224;12.074;2022-09-23T09:35:53;98019.94;;;21.77;36.34
2841;BME280;53423;49.224;12.074;2022-09-23T09:38:23;98019.78;;;22.54;34.37
2841;BME280;53423;49.224;12.074;2022-09-23T09:40:53;98030.00;;;22.04;36.23
2841;BME280;53423;49.224;12.074;2022-09-23T09:43:21;98018.16;;;22.00;35.08
2841;BME280;53423;49.224;12.074;2022-09-23T09:45:59;98014.06;;;22.51;34.93
2841;BME280;53423;49.224;12.074;2022-09-23T09:48:36;98002.00;;;22.60;34.27
2841;BME280;53423;49.224;12.074;2022-09-23T09:51:18;97999.69;;;22.86;35.29
2841;BME280;53423;49.224;12.074;2022-09-23T09:53:47;97989.63;;;23.16;34.00
2841;BME280;53423;49.224;12.074;2022-09-23T09:56:19;97990.81;;;20.91;35.16
2841;BME280;53423;49.224;12.074;2022-09-23T09:58:54;97990.38;;;20.76;37.35
2841;BME280;53423;49.224;12.074;2022-09-23T10:01:24;97976.56;;;21.93;33.52
2841;BME280;53423;49.224;12.074;2022-09-23T10:03:56;97983.41;;;22.65;32.64
2841;BME280;53423;49.224;12.074;2022-09-23T10:06:26;97977.88;;;23.06;31.77
2841;BME280;53423;49.224;12.074;2022-09-23T10:09:10;97968.94;;;23.00;30.97
2841;BME280;53423;49.224;12.074;2022-09-23T10:11:40;97968.78;;;20.17;34.40
2841;BME280;53423;49.224;12.074;2022-09-23T10:14:14;97965.47;;;22.88;34.35
2841;BME280;53423;49.224;12.074;2022-09-23T10:16:45;97956.66;;;20.82;33.13
2841;BME280;53423;49.224;12.074;2022-09-23T10:19:23;97959.53;;;21.05;33.28
2841;BME280;53423;49.224;12.074;2022-09-23T10:21:54;97948.25;;;21.92;31.20
2841;BME280;53423;49.224;12.074;2022-09-23T10:24:27;97957.28;;;23.29;31.07
2841;BME280;53423;49.224;12.074;2022-09-23T10:26:59;97955.13;;;21.70;31.16
2841;BME280;53423;49.224;12.074;2022-09-23T10:29:30;97945.41;;;21.46;32.44
2841;BME280;53423;49.224;12.074;2022-09-23T10:32:19;97942.81;;;22.33;30.57
2841;BME280;53423;49.224;12.074;2022-09-23T10:34:55;97951.22;;;22.83;28.08
2841;BME280;53423;49.224;12.074;2022-09-23T10:37:29;97942.41;;;23.10;29.59
2841;BME280;53423;49.224;12.074;2022-09-23T10:39:59;97940.06;;;23.54;28.95
2841;BME280;53423;49.224;12.074;2022-09-23T10:42:52;97942.91;;;22.96;30.19
2841;BME280;53423;49.224;12.074;2022-09-23T10:45:44;97944.31;;;20.87;30.77
2841;BME280;53423;49.224;12.074;2022-09-23T10:48:43;97940.47;;;21.61;31.16
2841;BME280;53423;49.224;12.074;2022-09-23T10:51:26;97927.97;;;22.60;29.79
2841;BME280;53423;49.224;12.074;2022-09-23T10:54:02;97922.19;;;23.03;28.91
2841;BME280;53423;49.224;12.074;2022-09-23T10:56:39;97920.50;;;23.53;28.11
2841;BME280;53423;49.224;12.074;2022-09-23T10:59:41;97918.66;;;22.74;27.40
2841;BME280;53423;49.224;12.074;2022-09-23T11:02:27;97908.31;;;22.43;28.87
2841;BME280;53423;49.224;12.074;2022-09-23T11:05:18;97906.69;;;23.28;26.48
2841;BME280;53423;49.224;12.074;2022-09-23T11:08:01;97903.44;;;23.14;27.39
2841;BME280;53423;49.224;12.074;2022-09-23T11:10:59;97911.81;;;22.44;28.63
2841;BME280;53423;49.224;12.074;2022-09-23T11:13:41;97908.09;;;22.22;29.48
2841;BME280;53423;49.224;12.074;2022-09-23T11:16:27;97905.50;;;20.37;31.23
2841;BME280;53423;49.224;12.074;2022-09-23T11:19:12;97899.72;;;21.13;31.67
2841;BME280;53423;49.224;12.074;2022-09-23T11:21:58;97896.94;;;22.01;30.11
2841;BME280;53423;49.224;12.074;2022-09-23T11:24:47;97897.19;;;21.88;29.94
2841;BME280;53423;49.224;12.074;2022-09-23T11:27:32;97894.13;;;21.03;29.83
2841;BME280;53423;49.224;12.074;2022-09-23T11:30:07;97892.59;;;20.16;32.22
2841;BME280;53423;49.224;12.074;2022-09-23T11:35:42;97876.41;;;21.08;31.37
2841;BME280;53423;49.224;12.074;2022-09-23T11:38:17;97876.03;;;21.34;30.27
2841;BME280;53423;49.224;12.074;2022-09-23T11:40:55;97867.59;;;21.08;30.55
2841;BME280;53423;49.224;12.074;2022-09-23T11:43:26;97867.34;;;22.14;28.38
2841;BME280;53423;49.224;12.074;2022-09-23T11:45:57;97870.91;;;21.74;29.47
2841;BME280;53423;49.224;12.074;2022-09-23T11:48:31;97866.47;;;21.68;28.97
2841;BME280;53423;49.224;12.074;2022-09-23T11:51:04;97868.63;;;22.12;28.45
2841;BME280;53423;49.224;12.074;2022-09-23T11:53:41;97864.00;;;22.07;26.50
2841;BME280;53423;49.224;12.074;2022-09-23T11:56:16;97861.72;;;21.70;28.17
2841;BME280;53423;49.224;12.074;2022-09-23T11:59:04;97861.34;;;20.66;29.09
2841;BME280;53423;49.224;12.074;2022-09-23T12:01:43;97856.38;;;20.33;29.16
2841;BME280;53423;49.224;12.074;2022-09-23T12:04:18;97858.56;;;20.90;29.81
2841;BME280;53423;49.224;12.074;2022-09-23T12:06:55;97859.34;;;20.61;28.93
2841;BME280;53423;49.224;12.074;2022-09-23T12:09:31;97852.03;;;20.21;27.83
2841;BME280;53423;49.224;12.074;2022-09-23T12:12:28;97850.03;;;20.10;30.27
2841;BME280;53423;49.224;12.074;2022-09-23T12:15:01;97844.50;;;20.11;30.40
2841;BME280;53423;49.224;12.074;2022-09-23T12:17:51;97835.38;;;20.61;30.03
2841;BME280;53423;49.224;12.074;2022-09-23T12:20:52;97852.41;;;19.19;32.49
2841;BME280;53423;49.224;12.074;2022-09-23T12:23:49;97841.63;;;19.70;33.14
2841;BME280;53423;49.224;12.074;2022-09-23T12:26:22;97837.94;;;19.71;32.48
2841;BME280;53423;49.224;12.074;2022-09-23T12:28:57;97833.84;;;20.36;33.64
2841;BME280;53423;49.224;12.074;2022-09-23T12:31:27;97836.06;;;19.96;31.24
2841;BME280;53423;49.224;12.074;2022-09-23T12:34:04;97828.06;;;20.39;31.30
2841;BME280;53423;49.224;12.074;2022-09-23T12:36:43;97831.78;;;20.13;30.34
2841;BME280;53423;49.224;12.074;2022-09-23T12:39:14;97824.63;;;20.50;32.89
2841;BME280;53423;49.224;12.074;2022-09-23T12:41:45;97816.72;;;20.43;32.16
2841;BME280;53423;49.224;12.074;2022-09-23T12:44:29;97825.69;;;20.49;31.52
2841;BME280;53423;49.224;12.074;2022-09-23T12:47:29;97820.78;;;20.64;28.32
2841;BME280;53423;49.224;12.074;2022-09-23T12:56:20;97799.63;;;20.69;31.61
2841;BME280;53423;49.224;12.074;2022-09-23T12:58:59;97802.34;;;20.92;32.15
2841;BME280;53423;49.224;12.074;2022-09-23T13:01:35;97797.56;;;21.01;30.47
2841;BME280;53423;49.224;12.074;2022-09-23T13:04:04;97795.03;;;21.17;30.94
2841;BME280;53423;49.224;12.074;2022-09-23T13:06:55;97790.59;;;21.00;32.08
2841;BME280;53423;49.224;12.074;2022-09-23T13:09:26;97789.91;;;20.27;29.94
2841;BME280;53423;49.224;12.074;2022-09-23T13:11:57;97792.75;;;20.43;30.58
2841;BME280;53423;49.224;12.074;2022-09-23T13:14:28;97790.31;;;20.06;31.88
2841;BME280;53423;49.224;12.074;2022-09-23T13:16:59;97784.31;;;19.74;30.90
2841;BME280;53423;49.224;12.074;2022-09-23T13:19:43;97783.50;;;19.73;32.47
2841;BME280;53423;49.224;12.074;2022-09-23T13:22:12;97784.78;;;20.07;30.05
2841;BME280;53423;49.224;12.074;2022-09-23T13:24:42;97780.56;;;20.36;31.95
2841;BME280;53423;49.224;12.074;2022-09-23T13:27:17;97780.63;;;20.11;31.31
2841;BME280;53423;49.224;12.074;2022-09-23T13:29:50;97786.38;;;19.90;33.66
2841;BME280;53423;49.224;12.074;2022-09-23T13:32:25;97776.84;;;19.83;33.45
2841;BME280;53423;49.224;12.074;2022-09-23T13:34:57;97774.22;;;20.37;31.78
2841;BME280;53423;49.224;12.074;2022-09-23T13:37:30;97774.41;;;20.53;34.23
2841;BME280;53423;49.224;12.074;2022-09-23T13:40:14;97755.63;;;20.48;32.95
2841;BME280;53423;49.224;12.074;2022-09-23T13:42:45;97754.19;;;20.34;32.45
2841;BME280;53423;49.224;12.074;2022-09-23T13:45:16;97744.31;;;20.53;33.46
2841;BME280;53423;49.224;12.074;2022-09-23T13:47:47;97754.59;;;19.95;30.29
2841;BME280;53423;49.224;12.074;2022-09-23T13:50:18;97749.00;;;20.21;30.35